sensor_id;sensor_type;location;lat;lon;timestamp;P1;durP1;ratioP1;P2;durP2;ratioP2
4808;SDS011;2418;49.930;8.606;2024-03-29T00:01:46;3.85;;;1.40;;
4808;SDS011;2418;49.930;8.606;2024-03-29T00:04:12;6.18;;;1.48;;
4808;SDS011;2418;49.930;8.606;2024-03-29T00:06:38;2.28;;;0.90;;
4808;SDS011;2418;49.930;8.606;2024-03-29T00:09:04;1.10;;;1.10;;
4808;SDS011;2418;49.930;8.606;2024-03-29T00:11:30;2.85;;;1.10;;
4808;SDS011;2418;49.930;8.606;2024-03-29T00:13:56;3.65;;;1.00;;
4808;SDS011;2418;49.930;8.606;2024-03-29T00:16:22;2.60;;;1.10;;
4808;SDS011;2418;49.930;8.606;2024-03-29T00:18:50;1.80;;;1.15;;
4808;SDS011;2418;49.930;8.606;2024-03-29T00:21:16;4.50;;;1.20;;
4808;SDS011;2418;49.930;8.606;2024-03-29T00:23:42;5.47;;;1.20;;
4808;SDS011;2418;49.930;8.606;2024-03-29T00:26:10;3.00;;;1.00;;
4808;SDS011;2418;49.930;8.606;2024-03-29T00:28:36;3.35;;;1.02;;
4808;SDS011;2418;49.930;8.606;2024-03-29T00:31:02;4.28;;;1.00;;
4808;SDS011;2418;49.930;8.606;2024-03-29T00:33:28;2.80;;;0.80;;
4808;SDS011;2418;49.930;8.606;2024-03-29T00:35:55;4.57;;;1.58;;
4808;SDS011;2418;49.930;8.606;2024-03-29T00:38:21;2.90;;;1.10;;
4808;SDS011;2418;49.930;8.606;2024-03-29T00:40:47;4.85;;;0.90;;
4808;SDS011;2418;49.930;8.606;2024-03-29T00:43:13;3.70;;;0.80;;
4808;SDS011;2418;49.930;8.606;2024-03-29T00:45:40;5.80;;;1.00;;
4808;SDS011;2418;49.930;8.606;2024-03-29T00:48:06;3.92;;;0.90;;
4808;SDS011;2418;49.930;8.606;2024-03-29T00:50:32;3.70;;;1.00;;
4808;SDS011;2418;49.930;8.606;2024-03-29T00:52:59;4.90;;;1.02;;
4808;SDS011;2418;49.930;8.606;2024-03-29T00:55:25;3.42;;;1.10;;
4808;SDS011;2418;49.930;8.606;2024-03-29T00:57:51;1.25;;;0.95;;
4808;SDS011;2418;49.930;8.606;2024-03-29T01:00:17;1.80;;;0.90;;
4808;SDS011;2418;49.930;8.606;2024-03-29T01:02:43;1.40;;;1.00;;
4808;SDS011;2418;49.930;8.606;2024-03-29T01:05:09;3.80;;;0.93;;
4808;SDS011;2418;49.930;8.606;2024-03-29T01:07:35;4.00;;;1.30;;
4808;SDS011;2418;49.930;8.606;2024-03-29T01:10:01;2.28;;;1.20;;
4808;SDS011;2418;49.930;8.606;2024-03-29T01:12:27;0.90;;;0.90;;
4808;SDS011;2418;49.930;8.606;2024-03-29T01:14:53;1.90;;;0.90;;
4808;SDS011;2418;49.930;8.606;2024-03-29T01:17:19;3.80;;;0.77;;
4808;SDS011;2418;49.930;8.606;2024-03-29T01:19:45;2.50;;;1.10;;
4808;SDS011;2418;49.930;8.606;2024-03-29T01:22:11;3.08;;;1.60;;
4808;SDS011;2418;49.930;8.606;2024-03-29T01:24:37;1.10;;;1.00;;
4808;SDS011;2418;49.930;8.606;2024-03-29T01:27:03;1.58;;;1.00;;
4808;SDS011;2418;49.930;8.606;2024-03-29T01:29:31;1.42;;;1.10;;
4808;SDS011;2418;49.930;8.606;2024-03-29T01:31:57;1.10;;;0.80;;
4808;SDS011;2418;49.930;8.606;2024-03-29T01:34:23;2.20;;;1.20;;
4808;SDS011;2418;49.930;8.606;2024-03-29T01:36:49;1.87;;;0.90;;
4808;SDS011;2418;49.930;8.606;2024-03-29T01:39:15;2.90;;;0.90;;
4808;SDS011;2418;49.930;8.606;2024-03-29T01:41:43;7.10;;;1.00;;
4808;SDS011;2418;49.930;8.606;2024-03-29T01:44:09;1.83;;;1.00;;
4808;SDS011;2418;49.930;8.606;2024-03-29T01:46:36;1.13;;;1.02;;
4808;SDS011;2418;49.930;8.606;2024-03-29T01:49:02;6.68;;;0.82;;
4808;SDS011;2418;49.930;8.606;2024-03-29T01:51:29;1.70;;;1.00;;
4808;SDS011;2418;49.930;8.606;2024-03-29T01:53:55;6.00;;;1.20;;
4808;SDS011;2418;49.930;8.606;2024-03-29T01:56:21;3.13;;;1.10;;
4808;SDS011;2418;49.930;8.606;2024-03-29T01:58:49;2.60;;;0.70;;
4808;SDS011;2418;49.930;8.606;2024-03-29T02:01:15;1.10;;;1.00;;
4808;SDS011;2418;49.930;8.606;2024-03-29T02:03:42;2.72;;;1.00;;
4808;SDS011;2418;49.930;8.606;2024-03-29T02:06:08;1.00;;;1.00;;
4808;SDS011;2418;49.930;8.606;2024-03-29T02:08:35;3.67;;;0.70;;
4808;SDS011;2418;49.930;8.606;2024-03-29T02:11:02;1.83;;;0.90;;
4808;SDS011;2418;49.930;8.606;2024-03-29T02:13:28;1.90;;;0.60;;
4808;SDS011;2418;49.930;8.606;2024-03-29T02:15:54;3.70;;;1.00;;
4808;SDS011;2418;49.930;8.606;2024-03-29T02:18:20;1.65;;;0.80;;
4808;SDS011;2418;49.930;8.606;2024-03-29T02:20:46;2.30;;;1.30;;
4808;SDS011;2418;49.930;8.606;2024-03-29T02:23:18;1.00;;;1.00;;
4808;SDS011;2418;49.930;8.606;2024-03-29T02:25:45;1.30;;;1.00;;
4808;SDS011;2418;49.930;8.606;2024-03-29T02:28:11;1.00;;;1.00;;
4808;SDS011;2418;49.930;8.606;2024-03-29T02:30:38;1.73;;;1.20;;
4808;SDS011;2418;49.930;8.606;2024-03-29T02:33:04;1.50;;;0.90;;
4808;SDS011;2418;49.930;8.606;2024-03-29T02:35:30;1.30;;;0.90;;
4808;SDS011;2418;49.930;8.606;2024-03-29T02:37:56;2.83;;;1.30;;
4808;SDS011;2418;49.930;8.606;2024-03-29T02:40:22;1.90;;;0.90;;
4808;SDS011;2418;49.930;8.606;2024-03-29T02:42:48;3.30;;;1.02;;
4808;SDS011;2418;49.930;8.606;2024-03-29T02:45:15;2.00;;;1.20;;
4808;SDS011;2418;49.930;8.606;2024-03-29T02:47:41;2.35;;;1.10;;
4808;SDS011;2418;49.930;8.606;2024-03-29T02:50:08;2.30;;;1.30;;
4808;SDS011;2418;49.930;8.606;2024-03-29T02:52:34;3.97;;;1.63;;
4808;SDS011;2418;49.930;8.606;2024-03-29T02:55:00;2.25;;;1.30;;
4808;SDS011;2418;49.930;8.606;2024-03-29T02:57:26;1.35;;;1.13;;
4808;SDS011;2418;49.930;8.606;2024-03-29T02:59:52;2.90;;;0.90;;
4808;SDS011;2418;49.930;8.606;2024-03-29T03:02:18;4.43;;;1.38;;
4808;SDS011;2418;49.930;8.606;2024-03-29T03:04:44;2.00;;;1.27;;
4808;SDS011;2418;49.930;8.606;2024-03-29T03:07:10;2.10;;;1.30;;
4808;SDS011;2418;49.930;8.606;2024-03-29T03:09:54;4.15;;;1.60;;
4808;SDS011;2418;49.930;8.606;2024-03-29T03:12:39;4.25;;;1.30;;
4808;SDS011;2418;49.930;8.606;2024-03-29T03:15:05;2.40;;;1.13;;
4808;SDS011;2418;49.930;8.606;2024-03-29T03:17:31;1.70;;;1.10;;
4808;SDS011;2418;49.930;8.606;2024-03-29T03:19:57;4.25;;;1.10;;
4808;SDS011;2418;49.930;8.606;2024-03-29T03:22:24;2.50;;;1.73;;
4808;SDS011;2418;49.930;8.606;2024-03-29T03:24:50;1.20;;;1.08;;
4808;SDS011;2418;49.930;8.606;2024-03-29T03:27:16;1.80;;;1.10;;
4808;SDS011;2418;49.930;8.606;2024-03-29T03:29:42;3.50;;;1.40;;
4808;SDS011;2418;49.930;8.606;2024-03-29T03:32:08;6.70;;;1.10;;
4808;SDS011;2418;49.930;8.606;2024-03-29T03:34:34;2.60;;;1.40;;
4808;SDS011;2418;49.930;8.606;2024-03-29T03:37:00;1.58;;;1.48;;
4808;SDS011;2418;49.930;8.606;2024-03-29T03:39:25;5.40;;;1.47;;
4808;SDS011;2418;49.930;8.606;2024-03-29T03:41:51;2.20;;;1.10;;
4808;SDS011;2418;49.930;8.606;2024-03-29T03:44:18;3.40;;;1.30;;
4808;SDS011;2418;49.930;8.606;2024-03-29T03:46:46;4.93;;;1.50;;
4808;SDS011;2418;49.930;8.606;2024-03-29T03:49:12;1.70;;;1.60;;
4808;SDS011;2418;49.930;8.606;2024-03-29T03:51:38;2.00;;;1.27;;
4808;SDS011;2418;49.930;8.606;2024-03-29T03:54:04;2.10;;;1.60;;
4808;SDS011;2418;49.930;8.606;2024-03-29T03:56:30;1.40;;;1.30;;
4808;SDS011;2418;49.930;8.606;2024-03-29T03:58:56;1.80;;;1.40;;
4808;SDS011;2418;49.930;8.606;2024-03-29T04:01:23;1.00;;;1.00;;
4808;SDS011;2418;49.930;8.606;2024-03-29T04:03:49;1.50;;;1.40;;
4808;SDS011;2418;49.930;8.606;2024-03-29T04:06:15;3.70;;;1.40;;
4808;SDS011;2418;49.930;8.606;2024-03-29T04:08:41;3.50;;;1.40;;
4808;SDS011;2418;49.930;8.606;2024-03-29T04:11:09;2.45;;;1.30;;
4808;SDS011;2418;49.930;8.606;2024-03-29T04:13:35;4.23;;;1.47;;
4808;SDS011;2418;49.930;8.606;2024-03-29T04:16:03;2.90;;;1.20;;
4808;SDS011;2418;49.930;8.606;2024-03-29T04:18:30;1.88;;;1.13;;
4808;SDS011;2418;49.930;8.606;2024-03-29T04:20:59;4.50;;;1.40;;
4808;SDS011;2418;49.930;8.606;2024-03-29T04:23:26;1.10;;;0.83;;
4808;SDS011;2418;49.930;8.606;2024-03-29T04:25:58;1.80;;;1.10;;
4808;SDS011;2418;49.930;8.606;2024-03-29T04:28:25;4.10;;;1.10;;
4808;SDS011;2418;49.930;8.606;2024-03-29T04:33:17;1.80;;;1.10;;
4808;SDS011;2418;49.930;8.606;2024-03-29T04:35:56;1.00;;;1.00;;
4808;SDS011;2418;49.930;8.606;2024-03-29T04:38:23;2.60;;;1.02;;
4808;SDS011;2418;49.930;8.606;2024-03-29T04:40:50;2.03;;;1.52;;
4808;SDS011;2418;49.930;8.606;2024-03-29T04:43:16;1.40;;;1.30;;
4808;SDS011;2418;49.930;8.606;2024-03-29T04:45:43;9.40;;;1.40;;
4808;SDS011;2418;49.930;8.606;2024-03-29T04:48:09;1.23;;;1.20;;
4808;SDS011;2418;49.930;8.606;2024-03-29T04:50:36;3.50;;;1.60;;
4808;SDS011;2418;49.930;8.606;2024-03-29T04:53:02;4.25;;;1.40;;
4808;SDS011;2418;49.930;8.606;2024-03-29T04:55:27;3.67;;;1.20;;
4808;SDS011;2418;49.930;8.606;2024-03-29T04:57:53;1.42;;;1.33;;
4808;SDS011;2418;49.930;8.606;2024-03-29T05:00:19;3.70;;;1.20;;
4808;SDS011;2418;49.930;8.606;2024-03-29T05:02:45;2.00;;;1.30;;
4808;SDS011;2418;49.930;8.606;2024-03-29T05:05:11;4.20;;;1.00;;
4808;SDS011;2418;49.930;8.606;2024-03-29T05:07:37;2.20;;;1.55;;
4808;SDS011;2418;49.930;8.606;2024-03-29T05:10:03;4.88;;;1.40;;
4808;SDS011;2418;49.930;8.606;2024-03-29T05:12:34;1.10;;;1.10;;
4808;SDS011;2418;49.930;8.606;2024-03-29T05:15:00;3.38;;;1.40;;
4808;SDS011;2418;49.930;8.606;2024-03-29T05:17:26;3.47;;;1.40;;
4808;SDS011;2418;49.930;8.606;2024-03-29T05:19:55;1.13;;;1.13;;
4808;SDS011;2418;49.930;8.606;2024-03-29T05:22:22;1.90;;;1.17;;
4808;SDS011;2418;49.930;8.606;2024-03-29T05:24:52;5.40;;;1.60;;
4808;SDS011;2418;49.930;8.606;2024-03-29T05:27:19;1.08;;;1.08;;
4808;SDS011;2418;49.930;8.606;2024-03-29T05:29:45;5.30;;;1.53;;
4808;SDS011;2418;49.930;8.606;2024-03-29T05:32:11;4.35;;;1.40;;
4808;SDS011;2418;49.930;8.606;2024-03-29T05:34:37;2.90;;;1.70;;
4808;SDS011;2418;49.930;8.606;2024-03-29T05:37:03;3.25;;;1.20;;
4808;SDS011;2418;49.930;8.606;2024-03-29T05:39:30;2.38;;;1.30;;
4808;SDS011;2418;49.930;8.606;2024-03-29T05:41:56;1.10;;;1.00;;
4808;SDS011;2418;49.930;8.606;2024-03-29T05:44:23;1.08;;;1.05;;
4808;SDS011;2418;49.930;8.606;2024-03-29T05:46:49;1.90;;;1.40;;
4808;SDS011;2418;49.930;8.606;2024-03-29T05:49:15;2.30;;;1.50;;
4808;SDS011;2418;49.930;8.606;2024-03-29T05:51:41;2.30;;;1.30;;
4808;SDS011;2418;49.930;8.606;2024-03-29T05:54:07;0.93;;;0.93;;
4808;SDS011;2418;49.930;8.606;2024-03-29T05:56:33;1.60;;;0.83;;
4808;SDS011;2418;49.930;8.606;2024-03-29T05:59:05;3.42;;;1.10;;
4808;SDS011;2418;49.930;8.606;2024-03-29T06:01:32;1.27;;;0.80;;
4808;SDS011;2418;49.930;8.606;2024-03-29T06:03:58;5.30;;;0.80;;
4808;SDS011;2418;49.930;8.606;2024-03-29T06:06:29;0.80;;;0.80;;
4808;SDS011;2418;49.930;8.606;2024-03-29T06:08:55;1.00;;;0.80;;
4808;SDS011;2418;49.930;8.606;2024-03-29T06:11:21;1.00;;;0.90;;
4808;SDS011;2418;49.930;8.606;2024-03-29T06:13:47;1.13;;;0.60;;
4808;SDS011;2418;49.930;8.606;2024-03-29T06:16:23;1.60;;;0.80;;
4808;SDS011;2418;49.930;8.606;2024-03-29T06:19:08;1.47;;;1.00;;
4808;SDS011;2418;49.930;8.606;2024-03-29T06:21:34;2.70;;;0.80;;
4808;SDS011;2418;49.930;8.606;2024-03-29T06:24:10;0.70;;;0.63;;
4808;SDS011;2418;49.930;8.606;2024-03-29T06:26:41;3.60;;;0.70;;
4808;SDS011;2418;49.930;8.606;2024-03-29T06:29:08;1.27;;;0.90;;
4808;SDS011;2418;49.930;8.606;2024-03-29T06:31:37;2.47;;;1.10;;
4808;SDS011;2418;49.930;8.606;2024-03-29T06:34:03;0.70;;;0.70;;
4808;SDS011;2418;49.930;8.606;2024-03-29T06:36:29;2.00;;;1.30;;
4808;SDS011;2418;49.930;8.606;2024-03-29T06:38:56;1.80;;;1.13;;
4808;SDS011;2418;49.930;8.606;2024-03-29T06:41:22;1.50;;;1.10;;
4808;SDS011;2418;49.930;8.606;2024-03-29T06:43:48;1.63;;;0.90;;
4808;SDS011;2418;49.930;8.606;2024-03-29T06:46:14;1.65;;;0.80;;
4808;SDS011;2418;49.930;8.606;2024-03-29T06:48:40;2.80;;;1.23;;
4808;SDS011;2418;49.930;8.606;2024-03-29T06:51:07;2.90;;;1.30;;
4808;SDS011;2418;49.930;8.606;2024-03-29T06:53:33;1.60;;;1.45;;
4808;SDS011;2418;49.930;8.606;2024-03-29T06:56:02;2.50;;;1.40;;
4808;SDS011;2418;49.930;8.606;2024-03-29T06:58:28;1.42;;;1.33;;
4808;SDS011;2418;49.930;8.606;2024-03-29T07:00:54;4.60;;;1.27;;
4808;SDS011;2418;49.930;8.606;2024-03-29T07:03:20;2.80;;;1.20;;
4808;SDS011;2418;49.930;8.606;2024-03-29T07:05:46;1.10;;;1.00;;
4808;SDS011;2418;49.930;8.606;2024-03-29T07:08:12;4.40;;;0.90;;
4808;SDS011;2418;49.930;8.606;2024-03-29T07:10:38;2.58;;;1.20;;
4808;SDS011;2418;49.930;8.606;2024-03-29T07:13:08;0.70;;;0.70;;
4808;SDS011;2418;49.930;8.606;2024-03-29T07:15:34;1.60;;;1.05;;
4808;SDS011;2418;49.930;8.606;2024-03-29T07:18:00;1.80;;;1.10;;
4808;SDS011;2418;49.930;8.606;2024-03-29T07:20:28;3.53;;;0.90;;
4808;SDS011;2418;49.930;8.606;2024-03-29T07:22:54;1.20;;;0.95;;
4808;SDS011;2418;49.930;8.606;2024-03-29T07:25:20;1.30;;;1.00;;
4808;SDS011;2418;49.930;8.606;2024-03-29T07:27:49;1.10;;;1.00;;
4808;SDS011;2418;49.930;8.606;2024-03-29T07:30:17;4.80;;;1.50;;
4808;SDS011;2418;49.930;8.606;2024-03-29T07:32:43;1.25;;;1.20;;
4808;SDS011;2418;49.930;8.606;2024-03-29T07:35:10;2.33;;;1.00;;
4808;SDS011;2418;49.930;8.606;2024-03-29T07:37:36;1.70;;;1.70;;
4808;SDS011;2418;49.930;8.606;2024-03-29T07:40:03;1.33;;;1.20;;
4808;SDS011;2418;49.930;8.606;2024-03-29T07:42:29;1.93;;;1.93;;
4808;SDS011;2418;49.930;8.606;2024-03-29T07:44:55;3.50;;;3.40;;
4808;SDS011;2418;49.930;8.606;2024-03-29T07:47:21;2.45;;;2.30;;
4808;SDS011;2418;49.930;8.606;2024-03-29T07:49:50;2.05;;;1.95;;
4808;SDS011;2418;49.930;8.606;2024-03-29T07:52:16;2.13;;;2.10;;
4808;SDS011;2418;49.930;8.606;2024-03-29T07:54:44;2.53;;;1.73;;
4808;SDS011;2418;49.930;8.606;2024-03-29T07:57:10;1.60;;;1.50;;
4808;SDS011;2418;49.930;8.606;2024-03-29T07:59:39;4.00;;;1.20;;
4808;SDS011;2418;49.930;8.606;2024-03-29T08:02:05;2.42;;;1.60;;
4808;SDS011;2418;49.930;8.606;2024-03-29T08:04:31;4.43;;;1.30;;
4808;SDS011;2418;49.930;8.606;2024-03-29T08:06:57;1.10;;;1.10;;
4808;SDS011;2418;49.930;8.606;2024-03-29T08:09:23;4.70;;;1.50;;
4808;SDS011;2418;49.930;8.606;2024-03-29T08:11:50;2.80;;;1.23;;
4808;SDS011;2418;49.930;8.606;2024-03-29T08:14:16;1.20;;;1.10;;
4808;SDS011;2418;49.930;8.606;2024-03-29T08:16:42;1.90;;;1.20;;
4808;SDS011;2418;49.930;8.606;2024-03-29T08:19:08;4.90;;;1.20;;
4808;SDS011;2418;49.930;8.606;2024-03-29T08:21:34;2.90;;;1.10;;
4808;SDS011;2418;49.930;8.606;2024-03-29T08:24:00;2.00;;;1.42;;
4808;SDS011;2418;49.930;8.606;2024-03-29T08:26:27;2.60;;;1.30;;
4808;SDS011;2418;49.930;8.606;2024-03-29T08:28:56;4.90;;;1.20;;
4808;SDS011;2418;49.930;8.606;2024-03-29T08:31:23;1.92;;;1.17;;
4808;SDS011;2418;49.930;8.606;2024-03-29T08:33:49;1.50;;;1.40;;
4808;SDS011;2418;49.930;8.606;2024-03-29T08:36:15;2.95;;;1.20;;
4808;SDS011;2418;49.930;8.606;2024-03-29T08:38:41;2.13;;;1.60;;
4808;SDS011;2418;49.930;8.606;2024-03-29T08:41:10;3.70;;;1.77;;
4808;SDS011;2418;49.930;8.606;2024-03-29T08:43:39;1.50;;;1.40;;
4808;SDS011;2418;49.930;8.606;2024-03-29T08:46:05;5.22;;;1.48;;
4808;SDS011;2418;49.930;8.606;2024-03-29T08:48:37;3.58;;;2.17;;
4808;SDS011;2418;49.930;8.606;2024-03-29T08:51:16;4.60;;;2.20;;
4808;SDS011;2418;49.930;8.606;2024-03-29T08:53:42;2.47;;;1.80;;
4808;SDS011;2418;49.930;8.606;2024-03-29T08:56:08;4.82;;;2.30;;
4808;SDS011;2418;49.930;8.606;2024-03-29T08:58:34;2.97;;;2.60;;
4808;SDS011;2418;49.930;8.606;2024-03-29T09:01:00;5.03;;;2.50;;
4808;SDS011;2418;49.930;8.606;2024-03-29T09:03:29;4.72;;;2.92;;
4808;SDS011;2418;49.930;8.606;2024-03-29T09:05:55;2.90;;;2.70;;
4808;SDS011;2418;49.930;8.606;2024-03-29T09:08:21;7.07;;;3.43;;
4808;SDS011;2418;49.930;8.606;2024-03-29T09:10:47;6.38;;;3.30;;
4808;SDS011;2418;49.930;8.606;2024-03-29T09:13:13;4.13;;;3.13;;
4808;SDS011;2418;49.930;8.606;2024-03-29T09:15:39;2.87;;;2.77;;
4808;SDS011;2418;49.930;8.606;2024-03-29T09:18:05;7.70;;;3.00;;
4808;SDS011;2418;49.930;8.606;2024-03-29T09:20:57;7.37;;;2.97;;
4808;SDS011;2418;49.930;8.606;2024-03-29T09:23:23;5.33;;;2.90;;
4808;SDS011;2418;49.930;8.606;2024-03-29T09:25:51;5.63;;;2.90;;
4808;SDS011;2418;49.930;8.606;2024-03-29T09:28:17;4.72;;;3.40;;
4808;SDS011;2418;49.930;8.606;2024-03-29T09:30:42;3.30;;;2.70;;
4808;SDS011;2418;49.930;8.606;2024-03-29T09:33:08;5.10;;;3.00;;
4808;SDS011;2418;49.930;8.606;2024-03-29T09:35:36;7.45;;;3.95;;
4808;SDS011;2418;49.930;8.606;2024-03-29T09:38:02;4.85;;;3.20;;
4808;SDS011;2418;49.930;8.606;2024-03-29T09:40:29;6.50;;;3.55;;
4808;SDS011;2418;49.930;8.606;2024-03-29T09:42:59;3.70;;;3.40;;
4808;SDS011;2418;49.930;8.606;2024-03-29T09:45:30;4.32;;;3.67;;
4808;SDS011;2418;49.930;8.606;2024-03-29T09:48:00;4.22;;;3.83;;
4808;SDS011;2418;49.930;8.606;2024-03-29T09:50:27;3.50;;;3.30;;
4808;SDS011;2418;49.930;8.606;2024-03-29T09:52:53;5.38;;;4.88;;
4808;SDS011;2418;49.930;8.606;2024-03-29T09:55:19;6.18;;;4.40;;
4808;SDS011;2418;49.930;8.606;2024-03-29T09:57:46;3.47;;;3.27;;
4808;SDS011;2418;49.930;8.606;2024-03-29T10:00:12;3.70;;;3.40;;
4808;SDS011;2418;49.930;8.606;2024-03-29T10:02:38;3.80;;;3.40;;
4808;SDS011;2418;49.930;8.606;2024-03-29T10:05:06;3.38;;;3.13;;
4808;SDS011;2418;49.930;8.606;2024-03-29T10:07:32;2.70;;;2.50;;
4808;SDS011;2418;49.930;8.606;2024-03-29T10:10:02;4.30;;;2.10;;
4808;SDS011;2418;49.930;8.606;2024-03-29T10:12:28;3.17;;;1.88;;
4808;SDS011;2418;49.930;8.606;2024-03-29T10:14:55;1.90;;;1.70;;
4808;SDS011;2418;49.930;8.606;2024-03-29T10:17:30;2.28;;;1.00;;
4808;SDS011;2418;49.930;8.606;2024-03-29T10:20:03;1.60;;;1.10;;
4808;SDS011;2418;49.930;8.606;2024-03-29T10:22:29;1.10;;;1.10;;
4808;SDS011;2418;49.930;8.606;2024-03-29T10:24:58;0.80;;;0.80;;
4808;SDS011;2418;49.930;8.606;2024-03-29T10:27:27;1.10;;;1.00;;
4808;SDS011;2418;49.930;8.606;2024-03-29T10:29:53;4.15;;;1.50;;
4808;SDS011;2418;49.930;8.606;2024-03-29T10:32:19;1.27;;;1.27;;
4808;SDS011;2418;49.930;8.606;2024-03-29T10:34:45;2.00;;;1.77;;
4808;SDS011;2418;49.930;8.606;2024-03-29T10:37:13;2.00;;;1.88;;
4808;SDS011;2418;49.930;8.606;2024-03-29T10:39:44;1.05;;;1.05;;
4808;SDS011;2418;49.930;8.606;2024-03-29T10:42:10;1.65;;;1.55;;
4808;SDS011;2418;49.930;8.606;2024-03-29T10:44:38;1.30;;;0.90;;
4808;SDS011;2418;49.930;8.606;2024-03-29T10:47:05;1.45;;;1.40;;
4808;SDS011;2418;49.930;8.606;2024-03-29T10:49:31;1.48;;;1.38;;
4808;SDS011;2418;49.930;8.606;2024-03-29T10:51:58;1.80;;;1.17;;
4808;SDS011;2418;49.930;8.606;2024-03-29T10:54:25;1.20;;;1.20;;
4808;SDS011;2418;49.930;8.606;2024-03-29T10:56:58;1.75;;;1.30;;
4808;SDS011;2418;49.930;8.606;2024-03-29T10:59:35;3.47;;;1.30;;
4808;SDS011;2418;49.930;8.606;2024-03-29T11:02:08;2.25;;;1.30;;
4808;SDS011;2418;49.930;8.606;2024-03-29T11:04:37;5.13;;;1.05;;
4808;SDS011;2418;49.930;8.606;2024-03-29T11:07:10;2.00;;;1.20;;
4808;SDS011;2418;49.930;8.606;2024-03-29T11:09:38;5.15;;;1.67;;
4808;SDS011;2418;49.930;8.606;2024-03-29T11:12:05;1.08;;;0.90;;
4808;SDS011;2418;49.930;8.606;2024-03-29T11:14:40;1.23;;;1.13;;
4808;SDS011;2418;49.930;8.606;2024-03-29T11:17:08;1.60;;;1.40;;
4808;SDS011;2418;49.930;8.606;2024-03-29T11:19:37;1.23;;;1.20;;
4808;SDS011;2418;49.930;8.606;2024-03-29T11:22:03;3.08;;;1.45;;
4808;SDS011;2418;49.930;8.606;2024-03-29T11:24:29;4.70;;;1.30;;
4808;SDS011;2418;49.930;8.606;2024-03-29T11:27:06;2.53;;;1.10;;
4808;SDS011;2418;49.930;8.606;2024-03-29T11:29:32;1.80;;;1.00;;
4808;SDS011;2418;49.930;8.606;2024-03-29T11:32:03;4.95;;;1.08;;
4808;SDS011;2418;49.930;8.606;2024-03-29T11:34:32;1.20;;;1.00;;
4808;SDS011;2418;49.930;8.606;2024-03-29T11:37:11;1.00;;;1.00;;
4808;SDS011;2418;49.930;8.606;2024-03-29T11:39:38;3.10;;;2.90;;
4808;SDS011;2418;49.930;8.606;2024-03-29T11:42:05;9.98;;;7.80;;
4808;SDS011;2418;49.930;8.606;2024-03-29T11:44:31;2.00;;;1.90;;
4808;SDS011;2418;49.930;8.606;2024-03-29T11:46:58;6.78;;;6.28;;
4808;SDS011;2418;49.930;8.606;2024-03-29T11:49:25;8.45;;;7.85;;
4808;SDS011;2418;49.930;8.606;2024-03-29T11:51:51;6.45;;;6.05;;
4808;SDS011;2418;49.930;8.606;2024-03-29T11:54:17;2.35;;;2.15;;
4808;SDS011;2418;49.930;8.606;2024-03-29T11:56:42;2.90;;;2.80;;
4808;SDS011;2418;49.930;8.606;2024-03-29T11:59:09;6.00;;;2.00;;
4808;SDS011;2418;49.930;8.606;2024-03-29T12:01:35;3.20;;;3.00;;
4808;SDS011;2418;49.930;8.606;2024-03-29T12:04:04;7.10;;;3.40;;
4808;SDS011;2418;49.930;8.606;2024-03-29T12:06:30;1.70;;;1.60;;
4808;SDS011;2418;49.930;8.606;2024-03-29T12:08:56;2.60;;;2.40;;
4808;SDS011;2418;49.930;8.606;2024-03-29T12:11:23;2.95;;;2.55;;
4808;SDS011;2418;49.930;8.606;2024-03-29T12:13:49;2.40;;;2.30;;
4808;SDS011;2418;49.930;8.606;2024-03-29T12:16:15;3.08;;;2.78;;
4808;SDS011;2418;49.930;8.606;2024-03-29T12:18:41;2.50;;;2.40;;
4808;SDS011;2418;49.930;8.606;2024-03-29T12:21:07;1.95;;;1.85;;
4808;SDS011;2418;49.930;8.606;2024-03-29T12:23:34;1.90;;;1.80;;
4808;SDS011;2418;49.930;8.606;2024-03-29T12:26:00;2.08;;;1.98;;
4808;SDS011;2418;49.930;8.606;2024-03-29T12:28:26;2.90;;;2.13;;
4808;SDS011;2418;49.930;8.606;2024-03-29T12:30:54;3.00;;;2.50;;
4808;SDS011;2418;49.930;8.606;2024-03-29T12:33:21;2.13;;;2.10;;
4808;SDS011;2418;49.930;8.606;2024-03-29T12:35:51;2.33;;;2.17;;
4808;SDS011;2418;49.930;8.606;2024-03-29T12:38:19;2.53;;;2.33;;
4808;SDS011;2418;49.930;8.606;2024-03-29T12:40:46;6.00;;;1.90;;
4808;SDS011;2418;49.930;8.606;2024-03-29T12:43:14;2.67;;;1.60;;
4808;SDS011;2418;49.930;8.606;2024-03-29T12:45:42;2.08;;;1.95;;
4808;SDS011;2418;49.930;8.606;2024-03-29T12:48:18;2.08;;;1.98;;
4808;SDS011;2418;49.930;8.606;2024-03-29T12:50:51;1.90;;;1.80;;
4808;SDS011;2418;49.930;8.606;2024-03-29T12:53:18;3.22;;;1.65;;
4808;SDS011;2418;49.930;8.606;2024-03-29T12:55:45;2.30;;;2.10;;
4808;SDS011;2418;49.930;8.606;2024-03-29T12:58:14;2.38;;;2.10;;
4808;SDS011;2418;49.930;8.606;2024-03-29T13:00:41;2.00;;;1.90;;
4808;SDS011;2418;49.930;8.606;2024-03-29T13:03:07;2.00;;;1.90;;
4808;SDS011;2418;49.930;8.606;2024-03-29T13:05:34;2.75;;;2.10;;
4808;SDS011;2418;49.930;8.606;2024-03-29T13:08:04;1.98;;;1.77;;
4808;SDS011;2418;49.930;8.606;2024-03-29T13:10:32;2.00;;;1.90;;
4808;SDS011;2418;49.930;8.606;2024-03-29T13:12:58;3.22;;;1.70;;
4808;SDS011;2418;49.930;8.606;2024-03-29T13:15:27;2.05;;;1.95;;
4808;SDS011;2418;49.930;8.606;2024-03-29T13:17:53;1.85;;;1.75;;
4808;SDS011;2418;49.930;8.606;2024-03-29T13:20:20;2.90;;;1.70;;
4808;SDS011;2418;49.930;8.606;2024-03-29T13:22:46;1.33;;;1.23;;
4808;SDS011;2418;49.930;8.606;2024-03-29T13:25:14;3.72;;;1.42;;
4808;SDS011;2418;49.930;8.606;2024-03-29T13:27:41;4.20;;;2.40;;
4808;SDS011;2418;49.930;8.606;2024-03-29T13:30:08;2.20;;;2.20;;
4808;SDS011;2418;49.930;8.606;2024-03-29T13:32:34;1.83;;;1.73;;
4808;SDS011;2418;49.930;8.606;2024-03-29T13:35:01;6.53;;;2.65;;
4808;SDS011;2418;49.930;8.606;2024-03-29T13:37:30;2.30;;;2.03;;
4808;SDS011;2418;49.930;8.606;2024-03-29T13:39:56;2.70;;;1.60;;
4808;SDS011;2418;49.930;8.606;2024-03-29T13:42:22;1.80;;;1.70;;
4808;SDS011;2418;49.930;8.606;2024-03-29T13:44:51;1.97;;;1.77;;
4808;SDS011;2418;49.930;8.606;2024-03-29T13:47:18;4.25;;;2.13;;
4808;SDS011;2418;49.930;8.606;2024-03-29T13:49:45;2.15;;;2.03;;
4808;SDS011;2418;49.930;8.606;2024-03-29T13:52:14;1.90;;;1.80;;
4808;SDS011;2418;49.930;8.606;2024-03-29T13:54:43;1.52;;;1.50;;
4808;SDS011;2418;49.930;8.606;2024-03-29T13:57:11;2.60;;;1.57;;
4808;SDS011;2418;49.930;8.606;2024-03-29T13:59:37;1.50;;;1.40;;
4808;SDS011;2418;49.930;8.606;2024-03-29T14:02:04;2.00;;;1.90;;
4808;SDS011;2418;49.930;8.606;2024-03-29T14:04:30;1.50;;;1.50;;
4808;SDS011;2418;49.930;8.606;2024-03-29T14:06:56;2.50;;;1.50;;
4808;SDS011;2418;49.930;8.606;2024-03-29T14:09:22;1.80;;;1.70;;
4808;SDS011;2418;49.930;8.606;2024-03-29T14:11:48;1.85;;;1.52;;
4808;SDS011;2418;49.930;8.606;2024-03-29T14:14:14;1.38;;;1.38;;
4808;SDS011;2418;49.930;8.606;2024-03-29T14:16:41;1.55;;;1.50;;
4808;SDS011;2418;49.930;8.606;2024-03-29T14:19:07;5.40;;;1.95;;
4808;SDS011;2418;49.930;8.606;2024-03-29T14:21:33;2.10;;;1.90;;
4808;SDS011;2418;49.930;8.606;2024-03-29T14:23:59;2.10;;;1.90;;
4808;SDS011;2418;49.930;8.606;2024-03-29T14:26:25;2.60;;;2.33;;
4808;SDS011;2418;49.930;8.606;2024-03-29T14:28:51;4.32;;;2.20;;
4808;SDS011;2418;49.930;8.606;2024-03-29T14:31:17;4.50;;;2.20;;
4808;SDS011;2418;49.930;8.606;2024-03-29T14:33:43;2.05;;;1.95;;
4808;SDS011;2418;49.930;8.606;2024-03-29T14:36:10;1.60;;;1.50;;
4808;SDS011;2418;49.930;8.606;2024-03-29T14:38:35;2.47;;;1.58;;
4808;SDS011;2418;49.930;8.606;2024-03-29T14:41:01;3.43;;;1.67;;
4808;SDS011;2418;49.930;8.606;2024-03-29T14:43:29;2.53;;;1.98;;
4808;SDS011;2418;49.930;8.606;2024-03-29T14:45:54;1.92;;;1.83;;
4808;SDS011;2418;49.930;8.606;2024-03-29T14:48:20;3.10;;;1.70;;
4808;SDS011;2418;49.930;8.606;2024-03-29T14:50:47;3.30;;;1.43;;
4808;SDS011;2418;49.930;8.606;2024-03-29T14:53:13;1.30;;;1.10;;
4808;SDS011;2418;49.930;8.606;2024-03-29T14:55:39;2.90;;;1.00;;
4808;SDS011;2418;49.930;8.606;2024-03-29T14:58:08;0.80;;;0.80;;
4808;SDS011;2418;49.930;8.606;2024-03-29T15:00:34;0.98;;;0.88;;
4808;SDS011;2418;49.930;8.606;2024-03-29T15:03:04;2.30;;;1.20;;
4808;SDS011;2418;49.930;8.606;2024-03-29T15:05:30;4.30;;;0.90;;
4808;SDS011;2418;49.930;8.606;2024-03-29T15:07:56;2.47;;;1.00;;
4808;SDS011;2418;49.930;8.606;2024-03-29T15:10:22;1.20;;;0.88;;
4808;SDS011;2418;49.930;8.606;2024-03-29T15:12:49;2.38;;;1.50;;
4808;SDS011;2418;49.930;8.606;2024-03-29T15:15:17;1.00;;;1.00;;
4808;SDS011;2418;49.930;8.606;2024-03-29T15:17:43;1.02;;;0.93;;